createdAt,value
2023-05-01T00:01:12.117Z,101586.06
2023-05-01T00:03:14.680Z,101589.78
2023-05-01T00:05:16.707Z,101586.47
2023-05-01T00:07:18.615Z,101586.28
2023-05-01T00:09:20.384Z,101577.88
2023-05-01T00:11:22.885Z,101585.16
2023-05-01T00:13:25.207Z,101577.53
2023-05-01T00:15:29.870Z,101583.56
2023-05-01T00:17:31.971Z,101580.25
2023-05-01T00:19:33.820Z,101575.56
2023-05-01T00:21:35.620Z,101572.69
2023-05-01T00:23:37.444Z,101578.09
2023-05-01T00:25:39.749Z,101574.69
2023-05-01T00:27:41.444Z,101573.66
2023-05-01T00:29:43.228Z,101577.56
2023-05-01T00:31:45.840Z,101573.50
2023-05-01T00:33:47.577Z,101563.28
2023-05-01T00:35:49.317Z,101556.38
2023-05-01T00:37:51.022Z,101559.16
2023-05-01T00:39:52.766Z,101558.16
2023-05-01T00:41:56.183Z,101550.75
2023-05-01T00:43:58.458Z,101545.44
2023-05-01T00:46:00.226Z,101546.69
2023-05-01T00:48:02.595Z,101546.03
2023-05-01T00:50:05.986Z,101541.34
2023-05-01T00:52:09.941Z,101543.84
2023-05-01T00:54:11.815Z,101536.50
2023-05-01T00:56:15.255Z,101534.97
2023-05-01T00:58:18.834Z,101536.00
2023-05-01T01:00:22.613Z,101537.53
2023-05-01T01:02:24.591Z,101525.47
2023-05-01T01:04:28.759Z,101525.56
2023-05-01T01:06:47.282Z,101520.47
2023-05-01T01:09:10.083Z,101524.94
2023-05-01T01:11:18.031Z,101516.81
2023-05-01T01:13:28.052Z,101525.41
2023-05-01T01:15:37.752Z,101509.81
2023-05-01T01:17:59.190Z,101517.63
2023-05-01T01:20:20.153Z,101515.13
2023-05-01T01:22:26.916Z,101516.91
2023-05-01T01:24:48.001Z,101504.19
2023-05-01T01:26:59.507Z,101508.63
2023-05-01T01:29:15.168Z,101500.84
2023-05-01T01:31:20.661Z,101493.94
2023-05-01T01:33:33.059Z,101502.34
2023-05-01T01:35:39.098Z,101491.91
2023-05-01T01:37:48.777Z,101491.06
2023-05-01T01:40:01.631Z,101490.09
2023-05-01T01:42:09.800Z,101489.72
2023-05-01T01:44:21.354Z,101484.31
2023-05-01T01:46:25.130Z,101479.34
2023-05-01T01:48:32.026Z,101480.19
2023-05-01T01:50:36.847Z,101478.44
2023-05-01T01:52:42.975Z,101467.47
2023-05-01T01:54:52.190Z,101464.41
2023-05-01T01:56:55.445Z,101466.03
2023-05-01T01:58:58.427Z,101462.56
2023-05-01T02:01:00.633Z,101459.31
2023-05-01T02:03:03.837Z,101451.47
2023-05-01T02:05:12.000Z,101461.75
2023-05-01T02:07:15.443Z,101452.41
2023-05-01T02:09:19.827Z,101442.97
2023-05-01T02:11:22.548Z,101449.63
2023-05-01T02:13:25.118Z,101449.88
2023-05-01T02:15:28.263Z,101452.06
2023-05-01T02:17:31.331Z,101451.69
2023-05-01T02:19:34.860Z,101451.69
2023-05-01T02:21:37.865Z,101455.03
2023-05-01T02:23:39.894Z,101453.28
2023-05-01T02:25:43.841Z,101448.28
2023-05-01T02:27:50.994Z,101440.53
2023-05-01T02:29:53.751Z,101432.75
2023-05-01T02:31:56.188Z,101441.41
2023-05-01T02:33:58.428Z,101433.75
2023-05-01T02:36:00.141Z,101431.75
2023-05-01T02:38:01.944Z,101431.91
2023-05-01T02:40:04.536Z,101427.56
2023-05-01T02:42:09.706Z,101425.84
2023-05-01T02:44:12.362Z,101423.22
2023-05-01T02:46:17.702Z,101428.97
2023-05-01T02:48:28.728Z,101428.03
2023-05-01T02:50:31.669Z,101424.84
2023-05-01T02:52:34.240Z,101426.31
2023-05-01T02:54:36.376Z,101427.38
2023-05-01T02:56:40.783Z,101429.13
2023-05-01T02:58:43.070Z,101420.69
2023-05-01T03:00:45.708Z,101429.28
2023-05-01T03:02:47.537Z,101432.63
2023-05-01T03:04:49.847Z,101427.31
2023-05-01T03:06:52.261Z,101433.28
2023-05-01T03:08:54.256Z,101434.16
2023-05-01T03:10:56.047Z,101429.91
2023-05-01T03:12:57.792Z,101420.47
2023-05-01T03:14:59.672Z,101427.28
2023-05-01T03:17:01.581Z,101427.19
2023-05-01T03:19:03.509Z,101425.34
2023-05-01T03:21:05.321Z,101416.63
2023-05-01T03:23:07.717Z,101416.81
2023-05-01T03:25:10.299Z,101417.00
2023-05-01T03:27:12.139Z,101421.31
2023-05-01T03:29:14.135Z,101417.03
2023-05-01T03:31:15.947Z,101423.00
2023-05-01T03:33:17.667Z,101427.25
2023-05-01T03:35:22.703Z,101417.81
2023-05-01T03:37:24.872Z,101414.53
2023-05-01T03:39:26.605Z,101412.91
2023-05-01T03:41:28.398Z,101418.09
2023-05-01T03:43:30.112Z,101424.06
2023-05-01T03:45:31.957Z,101426.75
2023-05-01T03:47:33.892Z,101424.84
2023-05-01T03:49:35.653Z,101427.88
2023-05-01T03:51:39.985Z,101417.75
2023-05-01T03:53:41.909Z,101410.09
2023-05-01T03:55:44.155Z,101418.69
2023-05-01T03:57:47.383Z,101417.09
2023-05-01T03:59:50.012Z,101421.47
2023-05-01T04:01:52.054Z,101422.25
2023-05-01T04:03:56.435Z,101425.63
2023-05-01T04:05:58.368Z,101424.63
2023-05-01T04:08:02.657Z,101429.06
2023-05-01T04:10:04.923Z,101425.63
2023-05-01T04:12:06.681Z,101423.91
2023-05-01T04:14:08.520Z,101425.63
2023-05-01T04:16:10.349Z,101423.28
2023-05-01T04:18:12.683Z,101422.88
2023-05-01T04:20:14.764Z,101428.31
2023-05-01T04:22:16.794Z,101428.31
2023-05-01T04:24:18.816Z,101424.94
2023-05-01T04:26:20.570Z,101426.56
2023-05-01T04:28:22.377Z,101429.25
2023-05-01T04:30:24.047Z,101431.00
2023-05-01T04:32:25.814Z,101429.19
2023-05-01T04:34:29.459Z,101432.00
2023-05-01T04:36:32.989Z,101431.13
2023-05-01T04:38:37.199Z,101428.66
2023-05-01T04:40:38.975Z,101428.72
2023-05-01T04:42:40.755Z,101427.75
2023-05-01T04:44:43.004Z,101427.59
2023-05-01T04:46:45.172Z,101429.22
2023-05-01T04:48:47.028Z,101424.06
2023-05-01T04:50:48.970Z,101425.03
2023-05-01T04:52:50.774Z,101427.47
2023-05-01T04:54:52.482Z,101426.66
2023-05-01T04:56:54.279Z,101435.59
2023-05-01T04:58:57.230Z,101439.03
2023-05-01T05:00:59.069Z,101434.34
2023-05-01T05:03:01.138Z,101433.75
2023-05-01T05:05:03.074Z,101438.09
2023-05-01T05:07:04.852Z,101436.38
2023-05-01T05:09:06.636Z,101430.50
2023-05-01T05:11:08.628Z,101435.72
2023-05-01T05:13:10.881Z,101434.06
2023-05-01T05:15:12.726Z,101441.84
2023-05-01T05:17:14.510Z,101439.34
2023-05-01T05:19:16.711Z,101445.38
2023-05-01T05:21:18.912Z,101436.78
2023-05-01T05:23:21.595Z,101435.94
2023-05-01T05:25:24.423Z,101440.09
2023-05-01T05:27:26.166Z,101440.69
2023-05-01T05:29:27.991Z,101439.81
2023-05-01T05:31:29.814Z,101446.06
2023-05-01T05:33:31.548Z,101441.91
2023-05-01T05:35:33.325Z,101448.81
2023-05-01T05:37:35.223Z,101454.16
2023-05-01T05:39:37.126Z,101448.66
2023-05-01T05:41:38.946Z,101447.91
2023-05-01T05:43:43.092Z,101449.97
2023-05-01T05:45:44.917Z,101451.72
2023-05-01T05:47:46.765Z,101444.94
2023-05-01T05:49:48.761Z,101449.00
2023-05-01T05:51:50.507Z,101443.16
2023-05-01T05:53:52.360Z,101446.69
2023-05-01T05:55:54.242Z,101448.53
2023-05-01T05:57:56.010Z,101447.72
2023-05-01T05:59:58.123Z,101442.81
2023-05-01T06:02:00.601Z,101446.38
2023-05-01T06:04:02.446Z,101443.84
2023-05-01T06:06:04.595Z,101442.16
2023-05-01T06:08:06.408Z,101448.19
2023-05-01T06:10:08.757Z,101448.09
2023-05-01T06:12:10.677Z,101441.41
2023-05-01T06:14:16.803Z,101441.41
2023-05-01T06:16:18.596Z,101448.16
2023-05-01T06:18:20.606Z,101444.03
2023-05-01T06:20:24.697Z,101449.22
2023-05-01T06:22:26.496Z,101444.16
2023-05-01T06:24:28.401Z,101452.03
2023-05-01T06:26:30.187Z,101444.94
2023-05-01T06:28:32.016Z,101445.84
2023-05-01T06:30:33.860Z,101447.66
2023-05-01T06:32:35.835Z,101446.97
2023-05-01T06:34:37.665Z,101455.72
2023-05-01T06:36:39.564Z,101457.38
2023-05-01T06:38:44.846Z,101454.78
2023-05-01T06:40:49.057Z,101459.28
2023-05-01T06:42:50.934Z,101459.28
2023-05-01T06:44:52.654Z,101459.22
2023-05-01T06:46:54.656Z,101453.19
2023-05-01T06:48:59.190Z,101454.16
2023-05-01T06:51:01.004Z,101455.03
2023-05-01T06:53:03.211Z,101448.28
2023-05-01T06:55:05.481Z,101437.97
2023-05-01T06:57:09.424Z,101443.28
2023-05-01T06:59:11.336Z,101443.09
2023-05-01T07:01:13.126Z,101445.91
2023-05-01T07:03:15.127Z,101443.41
2023-05-01T07:05:16.928Z,101445.91
2023-05-01T07:07:18.739Z,101451.13
2023-05-01T07:09:22.950Z,101450.91
2023-05-01T07:11:27.005Z,101449.09
2023-05-01T07:13:28.707Z,101452.63
2023-05-01T07:15:30.457Z,101451.00
2023-05-01T07:17:32.358Z,101458.44
2023-05-01T07:19:34.240Z,101457.84
2023-05-01T07:21:38.434Z,101454.44
2023-05-01T07:23:40.318Z,101465.56
2023-05-01T07:25:42.957Z,101460.50
2023-05-01T07:27:44.772Z,101466.56
2023-05-01T07:29:46.596Z,101470.06
2023-05-01T07:31:48.375Z,101465.00
2023-05-01T07:33:51.088Z,101468.47
2023-05-01T07:35:53.475Z,101466.78
2023-05-01T07:37:55.478Z,101478.06
2023-05-01T07:39:58.650Z,101474.50
2023-05-01T07:42:00.632Z,101477.19
2023-05-01T07:44:02.684Z,101476.41
2023-05-01T07:46:05.636Z,101478.13
2023-05-01T07:48:07.581Z,101483.16
2023-05-01T07:50:11.730Z,101480.69
2023-05-01T07:52:13.468Z,101485.94
2023-05-01T07:54:16.577Z,101489.34
2023-05-01T07:56:21.494Z,101485.09
2023-05-01T07:58:23.277Z,101486.06
2023-05-01T08:00:25.276Z,101478.97
2023-05-01T08:02:27.512Z,101481.63
2023-05-01T08:04:29.780Z,101491.94
2023-05-01T08:06:32.235Z,101480.91
2023-05-01T08:08:34.284Z,101479.19
2023-05-01T08:10:36.442Z,101484.53
2023-05-01T08:12:38.322Z,101481.97
2023-05-01T08:14:40.050Z,101482.66
2023-05-01T08:16:42.079Z,101491.94
2023-05-01T08:18:43.972Z,101489.72
2023-05-01T08:20:48.313Z,101487.94
2023-05-01T08:22:50.210Z,101486.88
2023-05-01T08:24:52.286Z,101485.44
2023-05-01T08:26:54.229Z,101486.44
2023-05-01T08:28:56.179Z,101485.59
2023-05-01T08:30:57.992Z,101491.47
2023-05-01T08:32:59.825Z,101483.47
2023-05-01T08:35:02.066Z,101488.06
2023-05-01T08:37:03.932Z,101491.50
2023-05-01T08:39:05.926Z,101494.13
2023-05-01T08:41:08.620Z,101488.97
2023-05-01T08:43:10.763Z,101494.28
2023-05-01T08:45:13.153Z,101497.44
2023-05-01T08:47:18.108Z,101495.16
2023-05-01T08:49:22.891Z,101495.13
2023-05-01T08:51:31.031Z,101495.31
2023-05-01T08:53:34.746Z,101496.88
2023-05-01T08:55:37.300Z,101490.81
2023-05-01T08:57:40.345Z,101489.88
2023-05-01T08:59:42.149Z,101489.06
2023-05-01T09:01:47.338Z,101491.03
2023-05-01T09:03:54.999Z,101496.31
2023-05-01T09:05:57.622Z,101493.03
2023-05-01T09:08:00.703Z,101496.59
2023-05-01T09:10:02.626Z,101497.50
2023-05-01T09:12:23.598Z,101496.44
2023-05-01T09:14:29.515Z,101501.06
2023-05-01T09:16:32.126Z,101504.53
2023-05-01T09:18:35.265Z,101497.78
2023-05-01T09:20:38.015Z,101503.06
2023-05-01T09:22:40.148Z,101504.88
2023-05-01T09:24:41.985Z,101504.75
2023-05-01T09:26:46.199Z,101500.56
2023-05-01T09:28:48.704Z,101508.47
2023-05-01T09:30:51.445Z,101509.44
2023-05-01T09:33:13.548Z,101519.81
2023-05-01T09:35:17.680Z,101512.16
2023-05-01T09:37:30.987Z,101513.06
2023-05-01T09:39:32.896Z,101509.63
2023-05-01T09:41:34.774Z,101508.72
2023-05-01T09:43:36.644Z,101513.06
2023-05-01T09:45:40.353Z,101516.53
2023-05-01T09:47:44.264Z,101519.94
2023-05-01T09:49:49.319Z,101519.97
2023-05-01T09:51:51.264Z,101519.13
2023-05-01T09:53:54.798Z,101520.09
2023-05-01T09:56:07.229Z,101518.38
2023-05-01T09:58:28.385Z,101522.69
2023-05-01T10:00:30.497Z,101517.63
2023-05-01T10:02:32.574Z,101523.69
2023-05-01T10:04:35.745Z,101528.13
2023-05-01T10:06:38.952Z,101525.66
2023-05-01T10:08:46.777Z,101535.22
2023-05-01T10:11:00.953Z,101535.25
2023-05-01T10:13:14.744Z,101536.16
2023-05-01T10:15:25.396Z,101533.66
2023-05-01T10:17:28.996Z,101529.31
2023-05-01T10:19:31.574Z,101526.81
2023-05-01T10:21:34.494Z,101533.81
2023-05-01T10:23:36.711Z,101527.06
2023-05-01T10:25:42.188Z,101528.81
2023-05-01T10:27:44.027Z,101521.00
2023-05-01T10:29:52.656Z,101526.19
2023-05-01T10:31:56.764Z,101522.84
2023-05-01T10:34:01.001Z,101522.03
2023-05-01T10:36:04.202Z,101520.22
2023-05-01T10:38:10.763Z,101522.09
2023-05-01T10:40:32.116Z,101510.88
2023-05-01T10:42:34.131Z,101515.28
2023-05-01T10:44:36.209Z,101518.03
2023-05-01T10:46:38.454Z,101514.50
2023-05-01T10:48:41.208Z,101510.16
2023-05-01T10:51:02.332Z,101513.75
2023-05-01T10:53:12.419Z,101510.38
2023-05-01T10:55:33.176Z,101503.44
2023-05-01T10:57:44.429Z,101505.19
2023-05-01T11:00:02.561Z,101511.34
2023-05-01T11:02:22.774Z,101508.75
2023-05-01T11:04:25.229Z,101499.25
2023-05-01T11:06:27.908Z,101497.50
2023-05-01T11:08:31.960Z,101497.50
2023-05-01T11:10:33.872Z,101490.63
2023-05-01T11:12:46.705Z,101488.88
2023-05-01T11:15:07.590Z,101486.28
2023-05-01T11:17:09.471Z,101486.25
2023-05-01T11:19:22.413Z,101486.28
2023-05-01T11:21:33.633Z,101488.00
2023-05-01T11:23:36.840Z,101493.19
2023-05-01T11:25:38.695Z,101496.69
2023-05-01T11:27:40.593Z,101494.94
2023-05-01T11:29:45.294Z,101491.47
2023-05-01T11:31:49.143Z,101484.53
2023-05-01T11:33:51.192Z,101483.63
2023-05-01T11:36:02.265Z,101482.75
2023-05-01T11:38:04.156Z,101489.72
2023-05-01T11:40:25.033Z,101484.50
2023-05-01T11:42:27.794Z,101482.75
2023-05-01T11:44:30.471Z,101485.34
2023-05-01T11:46:33.982Z,101493.13
2023-05-01T11:48:36.018Z,101489.66
2023-05-01T11:50:39.036Z,101489.69
2023-05-01T11:52:49.633Z,101487.09
2023-05-01T11:54:51.578Z,101488.81
2023-05-01T11:57:01.270Z,101489.72
2023-05-01T11:59:12.339Z,101488.84
2023-05-01T12:01:14.458Z,101494.97
2023-05-01T12:03:16.410Z,101500.16
2023-05-01T12:05:18.644Z,101494.09
2023-05-01T12:07:22.559Z,101498.44
2023-05-01T12:09:27.130Z,101500.19
2023-05-01T12:11:29.199Z,101502.78
2023-05-01T12:13:31.416Z,101501.94
2023-05-01T12:15:37.650Z,101505.41
2023-05-01T12:17:39.721Z,101506.28
2023-05-01T12:19:49.283Z,101508.00
2023-05-01T12:22:06.735Z,101511.47
2023-05-01T12:24:10.884Z,101511.44
2023-05-01T12:26:23.997Z,101506.22
2023-05-01T12:28:27.848Z,101509.66
2023-05-01T12:30:30.147Z,101507.06
2023-05-01T12:32:33.862Z,101503.56
2023-05-01T12:34:36.034Z,101504.44
2023-05-01T12:36:38.510Z,101510.53
2023-05-01T12:38:40.512Z,101514.06
2023-05-01T12:40:54.532Z,101508.00
2023-05-01T12:42:58.226Z,101506.25
2023-05-01T12:45:01.858Z,101508.00
2023-05-01T12:47:06.375Z,101509.75
2023-05-01T12:49:08.318Z,101507.13
2023-05-01T12:51:18.085Z,101511.50
2023-05-01T12:53:23.147Z,101526.25
2023-05-01T12:55:25.369Z,101525.41
2023-05-01T12:57:27.831Z,101522.78
2023-05-01T12:59:29.940Z,101518.41
2023-05-01T13:01:31.939Z,101527.09
2023-05-01T13:03:38.307Z,101521.00
2023-05-01T13:05:52.592Z,101527.91
2023-05-01T13:07:54.562Z,101527.94
2023-05-01T13:09:59.413Z,101530.53
2023-05-01T13:12:07.307Z,101532.25
2023-05-01T13:14:10.212Z,101530.53
2023-05-01T13:16:14.375Z,101522.69
2023-05-01T13:18:16.413Z,101530.53
2023-05-01T13:20:27.095Z,101529.66
2023-05-01T13:22:30.853Z,101527.13
2023-05-01T13:24:45.012Z,101527.13
2023-05-01T13:26:47.010Z,101526.25
2023-05-01T13:28:49.256Z,101527.97
2023-05-01T13:30:51.312Z,101529.75
2023-05-01T13:32:53.300Z,101532.34
2023-05-01T13:34:58.514Z,101533.22
2023-05-01T13:37:02.398Z,101531.47
2023-05-01T13:39:04.392Z,101534.09
2023-05-01T13:41:06.411Z,101541.88
2023-05-01T13:43:16.550Z,101535.81
2023-05-01T13:45:20.762Z,101532.34
2023-05-01T13:47:27.886Z,101534.06
2023-05-01T13:49:29.975Z,101535.81
2023-05-01T13:51:32.781Z,101549.72
2023-05-01T13:53:35.194Z,101540.16
2023-05-01T13:55:41.186Z,101534.03
2023-05-01T13:57:43.480Z,101543.63
2023-05-01T13:59:47.331Z,101547.09
2023-05-01T14:01:49.407Z,101538.41
2023-05-01T14:03:51.842Z,101536.63
2023-05-01T14:05:53.988Z,101537.50
2023-05-01T14:08:00.509Z,101544.44
2023-05-01T14:10:02.583Z,101534.84
2023-05-01T14:12:04.781Z,101540.13
2023-05-01T14:14:06.731Z,101541.84
2023-05-01T14:16:11.908Z,101537.50
2023-05-01T14:18:17.968Z,101534.88
2023-05-01T14:20:20.122Z,101540.13
2023-05-01T14:22:22.446Z,101538.41
2023-05-01T14:24:24.425Z,101546.19
2023-05-01T14:26:26.608Z,101544.47
2023-05-01T14:28:29.929Z,101541.88
2023-05-01T14:30:34.586Z,101546.25
2023-05-01T14:32:41.360Z,101548.88
2023-05-01T14:34:43.385Z,101541.91
2023-05-01T14:36:45.495Z,101555.81
2023-05-01T14:38:49.505Z,101552.34
2023-05-01T14:40:52.350Z,101554.06
2023-05-01T14:42:55.376Z,101559.28
2023-05-01T14:44:57.438Z,101563.63
2023-05-01T14:47:00.479Z,101566.25
2023-05-01T14:49:03.338Z,101565.38
2023-05-01T14:51:06.651Z,101564.50
2023-05-01T14:53:08.522Z,101562.75
2023-05-01T14:55:12.329Z,101564.50
2023-05-01T14:57:14.517Z,101564.50
2023-05-01T14:59:17.023Z,101561.88
2023-05-01T15:01:19.685Z,101564.47
2023-05-01T15:03:21.934Z,101566.22
2023-05-01T15:05:26.275Z,101567.09
2023-05-01T15:07:28.047Z,101564.47
2023-05-01T15:09:32.140Z,101561.88
2023-05-01T15:11:33.982Z,101556.66
2023-05-01T15:13:36.565Z,101567.94
2023-05-01T15:15:38.502Z,101565.34
2023-05-01T15:17:43.707Z,101563.63
2023-05-01T15:19:45.527Z,101564.50
2023-05-01T15:21:49.549Z,101560.13
2023-05-01T15:23:51.454Z,101563.47
2023-05-01T15:25:53.701Z,101560.78
2023-05-01T15:27:55.941Z,101564.19
2023-05-01T15:29:57.839Z,101560.66
2023-05-01T15:32:11.345Z,101557.09
2023-05-01T15:34:14.521Z,101565.69
2023-05-01T15:36:16.816Z,101565.72
2023-05-01T15:38:20.563Z,101554.28
2023-05-01T15:40:22.758Z,101563.66
2023-05-01T15:42:24.579Z,101560.84
2023-05-01T15:44:27.833Z,101554.50
2023-05-01T15:46:29.721Z,101555.34
2023-05-01T15:48:31.694Z,101559.75
2023-05-01T15:50:33.536Z,101562.44
2023-05-01T15:52:36.302Z,101556.47
2023-05-01T15:54:38.230Z,101565.13
2023-05-01T15:56:40.145Z,101567.88
2023-05-01T15:58:44.361Z,101566.28
2023-05-01T16:00:47.598Z,101572.34
2023-05-01T16:02:50.887Z,101575.94
2023-05-01T16:04:54.175Z,101572.50
2023-05-01T16:06:56.336Z,101570.75
2023-05-01T16:08:59.475Z,101576.94
2023-05-01T16:11:01.351Z,101577.88
2023-05-01T16:13:06.372Z,101584.00
2023-05-01T16:15:08.952Z,101575.09
2023-05-01T16:17:10.933Z,101588.19
2023-05-01T16:19:19.375Z,101576.84
2023-05-01T16:21:33.059Z,101588.28
2023-05-01T16:23:34.999Z,101588.25
2023-05-01T16:25:42.683Z,101591.72
2023-05-01T16:27:46.382Z,101590.06
2023-05-01T16:29:48.233Z,101587.31
2023-05-01T16:31:50.152Z,101584.69
2023-05-01T16:33:54.030Z,101588.13
2023-05-01T16:35:55.858Z,101594.13
2023-05-01T16:38:00.098Z,101589.81
2023-05-01T16:40:02.345Z,101589.81
2023-05-01T16:42:04.655Z,101592.53
2023-05-01T16:44:06.472Z,101590.72
2023-05-01T16:46:09.185Z,101593.41
2023-05-01T16:48:11.659Z,101590.75
2023-05-01T16:50:14.163Z,101592.47
2023-05-01T16:52:17.267Z,101592.50
2023-05-01T16:54:19.372Z,101591.56
2023-05-01T16:56:22.097Z,101597.00
2023-05-01T16:58:23.993Z,101595.31
2023-05-01T17:00:29.608Z,101597.09
2023-05-01T17:02:34.011Z,101604.06
2023-05-01T17:04:36.129Z,101595.53
2023-05-01T17:06:38.231Z,101593.84
2023-05-01T17:08:40.281Z,101603.44
2023-05-01T17:10:42.173Z,101605.22
2023-05-01T17:12:44.690Z,101607.84
2023-05-01T17:14:46.547Z,101607.03
2023-05-01T17:16:50.939Z,101607.91
2023-05-01T17:18:52.955Z,101606.16
2023-05-01T17:20:55.015Z,101612.25
2023-05-01T17:22:56.902Z,101607.94
2023-05-01T17:25:02.381Z,101612.31
2023-05-01T17:27:04.454Z,101612.31
2023-05-01T17:29:06.444Z,101610.56
2023-05-01T17:31:08.671Z,101613.22
2023-05-01T17:33:10.516Z,101620.16
2023-05-01T17:35:12.443Z,101614.94
2023-05-01T17:37:15.482Z,101615.84
2023-05-01T17:39:21.915Z,101617.56
2023-05-01T17:41:24.894Z,101617.56
2023-05-01T17:43:26.973Z,101622.75
2023-05-01T17:45:29.159Z,101624.50
2023-05-01T17:47:31.092Z,101623.66
2023-05-01T17:49:33.343Z,101622.75
2023-05-01T17:51:35.335Z,101624.50
2023-05-01T17:53:37.931Z,101621.00
2023-05-01T17:55:40.264Z,101616.66
2023-05-01T17:57:42.312Z,101624.50
2023-05-01T17:59:44.216Z,101622.78
2023-05-01T18:01:46.166Z,101620.13
2023-05-01T18:03:49.197Z,101620.13
2023-05-01T18:05:54.775Z,101625.38
2023-05-01T18:07:56.590Z,101625.34
2023-05-01T18:09:58.922Z,101627.94
2023-05-01T18:12:01.175Z,101627.94
2023-05-01T18:14:04.215Z,101627.94
2023-05-01T18:16:06.608Z,101624.44
2023-05-01T18:18:08.556Z,101634.88
2023-05-01T18:20:11.104Z,101639.22
2023-05-01T18:22:15.094Z,101638.34
2023-05-01T18:24:16.972Z,101636.59
2023-05-01T18:26:19.574Z,101640.94
2023-05-01T18:28:22.007Z,101637.47
2023-05-01T18:30:24.127Z,101647.94
2023-05-01T18:32:35.800Z,101647.06
2023-05-01T18:34:50.020Z,101657.44
2023-05-01T18:36:54.800Z,101652.25
2023-05-01T18:38:56.776Z,101655.72
2023-05-01T18:40:58.637Z,101662.66
2023-05-01T18:43:00.495Z,101663.53
2023-05-01T18:45:02.331Z,101662.63
2023-05-01T18:47:04.468Z,101670.44
2023-05-01T18:49:06.537Z,101676.56
2023-05-01T18:51:09.708Z,101679.13
2023-05-01T18:53:11.616Z,101680.88
2023-05-01T18:55:16.923Z,101680.88
2023-05-01T18:57:18.794Z,101686.97
2023-05-01T18:59:21.998Z,101686.88
2023-05-01T19:01:27.240Z,101689.50
2023-05-01T19:03:29.438Z,101691.19
2023-05-01T19:05:31.734Z,101698.13
2023-05-01T19:07:33.693Z,101696.34
2023-05-01T19:09:35.552Z,101700.69
2023-05-01T19:11:37.449Z,101705.03
2023-05-01T19:13:39.230Z,101709.34
2023-05-01T19:15:41.512Z,101705.03
2023-05-01T19:17:43.476Z,101707.63
2023-05-01T19:19:45.346Z,101704.16
2023-05-01T19:21:47.209Z,101710.16
2023-05-01T19:23:49.754Z,101707.56
2023-05-01T19:25:51.712Z,101716.25
2023-05-01T19:27:53.752Z,101717.94
2023-05-01T19:29:55.651Z,101720.53
2023-05-01T19:31:57.539Z,101726.59
2023-05-01T19:33:59.429Z,101729.16
2023-05-01T19:36:01.413Z,101729.19
2023-05-01T19:38:03.409Z,101732.66
2023-05-01T19:40:07.556Z,101743.91
2023-05-01T19:42:12.490Z,101752.63
2023-05-01T19:44:16.831Z,101751.72
2023-05-01T19:46:18.756Z,101758.63
2023-05-01T19:48:20.726Z,101760.38
2023-05-01T19:50:22.726Z,101760.38
2023-05-01T19:52:24.527Z,101762.97
2023-05-01T19:54:26.450Z,101765.53
2023-05-01T19:56:28.493Z,101776.78
2023-05-01T19:58:30.682Z,101780.25
2023-05-01T20:00:32.609Z,101782.88
2023-05-01T20:02:34.701Z,101783.72
2023-05-01T20:04:36.739Z,101791.53
2023-05-01T20:06:38.627Z,101795.00
2023-05-01T20:08:41.654Z,101795.81
2023-05-01T20:10:43.495Z,101799.28
2023-05-01T20:12:45.568Z,101801.03
2023-05-01T20:14:47.552Z,101807.06
2023-05-01T20:16:50.630Z,101808.81
2023-05-01T20:18:52.687Z,101808.81
2023-05-01T20:20:54.553Z,101807.94
2023-05-01T20:23:10.906Z,101817.47
2023-05-01T20:25:14.051Z,101820.06
2023-05-01T20:27:16.016Z,101825.22
2023-05-01T20:29:18.220Z,101828.66
2023-05-01T20:31:21.969Z,101833.00
2023-05-01T20:33:24.731Z,101834.72
2023-05-01T20:35:26.586Z,101834.75
2023-05-01T20:37:28.435Z,101846.84
2023-05-01T20:39:30.760Z,101842.53
2023-05-01T20:41:32.702Z,101845.88
2023-05-01T20:43:35.389Z,101842.53
2023-05-01T20:45:37.720Z,101848.50
2023-05-01T20:47:39.806Z,101855.38
2023-05-01T20:49:41.681Z,101853.59
2023-05-01T20:51:43.612Z,101853.59
2023-05-01T20:53:45.836Z,101860.53
2023-05-01T20:55:47.882Z,101863.97
2023-05-01T20:57:49.809Z,101863.97
2023-05-01T20:59:51.694Z,101869.16
2023-05-01T21:01:53.605Z,101868.28
2023-05-01T21:03:55.796Z,101876.94
2023-05-01T21:05:59.671Z,101876.00
2023-05-01T21:08:03.033Z,101884.53
2023-05-01T21:10:07.983Z,101867.25
2023-05-01T21:12:09.821Z,101878.44
2023-05-01T21:14:11.943Z,101881.06
2023-05-01T21:16:15.900Z,101880.19
2023-05-01T21:18:20.445Z,101888.09
2023-05-01T21:20:31.594Z,101884.56
2023-05-01T21:22:33.504Z,101894.09
2023-05-01T21:24:36.611Z,101892.34
2023-05-01T21:26:38.933Z,101897.56
2023-05-01T21:28:40.899Z,101897.53
2023-05-01T21:30:42.815Z,101900.00
2023-05-01T21:32:44.708Z,101902.59
2023-05-01T21:34:46.867Z,101903.41
2023-05-01T21:36:49.375Z,101900.69
2023-05-01T21:38:51.364Z,101910.28
2023-05-01T21:40:53.299Z,101910.16
2023-05-01T21:42:55.350Z,101912.63
2023-05-01T21:45:01.026Z,101917.81
2023-05-01T21:47:03.020Z,101912.56
2023-05-01T21:49:04.854Z,101914.28
2023-05-01T21:51:06.795Z,101913.41
2023-05-01T21:53:08.815Z,101921.19
2023-05-01T21:55:16.288Z,101916.78
2023-05-01T21:57:18.195Z,101921.06
2023-05-01T21:59:20.050Z,101928.63
2023-05-01T22:01:22.881Z,101927.78
2023-05-01T22:03:27.400Z,101930.41
2023-05-01T22:05:32.173Z,101928.69
2023-05-01T22:07:34.273Z,101924.16
2023-05-01T22:09:36.035Z,101925.91
2023-05-01T22:11:37.738Z,101927.56
2023-05-01T22:13:39.480Z,101928.13
2023-05-01T22:15:41.679Z,101935.22
2023-05-01T22:17:44.637Z,101937.66
2023-05-01T22:19:46.508Z,101937.53
2023-05-01T22:21:48.439Z,101934.94
2023-05-01T22:23:50.560Z,101939.19
2023-05-01T22:25:59.575Z,101941.63
2023-05-01T22:28:04.371Z,101940.06
2023-05-01T22:30:07.359Z,101945.13
2023-05-01T22:32:09.340Z,101940.66
2023-05-01T22:34:11.273Z,101942.34
2023-05-01T22:36:14.067Z,101941.41
2023-05-01T22:38:15.842Z,101941.31
2023-05-01T22:40:18.181Z,101951.78
2023-05-01T22:42:20.069Z,101946.53
2023-05-01T22:44:25.196Z,101950.72
2023-05-01T22:46:27.440Z,101943.88
2023-05-01T22:48:29.926Z,101954.88
2023-05-01T22:50:31.797Z,101950.75
2023-05-01T22:52:33.833Z,101950.59
2023-05-01T22:54:35.635Z,101951.47
2023-05-01T22:56:37.824Z,101953.16
2023-05-01T22:58:39.706Z,101959.19
2023-05-01T23:00:41.774Z,101964.16
2023-05-01T23:02:43.888Z,101969.19
2023-05-01T23:04:46.372Z,101959.84
2023-05-01T23:06:48.424Z,101962.91
2023-05-01T23:08:54.033Z,101966.53
2023-05-01T23:10:55.910Z,101968.31
2023-05-01T23:12:58.013Z,101974.31
2023-05-01T23:15:00.613Z,101980.56
2023-05-01T23:17:02.438Z,101977.88
2023-05-01T23:19:04.718Z,101978.56
2023-05-01T23:21:06.460Z,101976.09
2023-05-01T23:23:14.017Z,101982.03
2023-05-01T23:25:23.005Z,101982.03
2023-05-01T23:27:24.835Z,101981.94
2023-05-01T23:29:27.639Z,101986.34
2023-05-01T23:31:32.998Z,101986.84